Latest Weather Observations for Yarram Airport

IDV60801

Issued at 11:32 pm EDT Wednesday 22 November 2017 (issued every 30 minutes, with the page automatically refreshed every 10 minutes)

About weather observations | Map of weather stations | Latest weather observations for VIC | Other Formats
Station Details ID: 085151 Name: YARRAM AIRPORT Lat: -38.56 Lon: 146.75 Height: 17.9 m
Data from the previous 72 hours. | See also: Recent months at Yarram Airport
Date/Time
EDT
Temp
°C
App
Temp
°C
Dew
Point
°C
Rel
Hum
%
Delta-T
°C
Wind Press
QNH
hPa
Press
MSL
hPa
Rain since
9am
mm
Dir  Spd
km/h
Gust
km/h
Spd
kts
Gust
kts
22/11:30pm 11.8 12.1 11.0 95 0.4 CALM 0 0 0 0 1014.5 1014.5 0.0
22/11:00pm 11.4 11.6 10.5 94 0.5 CALM 0 0 0 0 1014.9 1014.9 0.0
22/10:30pm 13.1 13.7 12.0 93 0.6 CALM 0 6 0 3 1015.2 1015.2 0.0
22/10:00pm 14.3 14.0 12.7 90 0.9 E 6 7 3 4 1015.4 1015.4 0.0
22/09:30pm 15.3 15.1 13.5 89 1.0 E 7 7 4 4 1015.5 1015.5 0.0
22/09:00pm 15.5 14.7 13.0 85 1.4 ESE 9 11 5 6 1015.4 1015.4 0.0
22/08:30pm 16.8 15.9 13.7 82 1.8 E 11 17 6 9 1015.3 1015.3 0.0
22/08:00pm 17.8 16.1 13.7 77 2.3 E 15 19 8 10 1015.1 1015.1 0.0
22/07:30pm 18.8 16.7 13.6 72 3.0 E 17 26 9 14 1015.1 1015.1 0.0
22/07:00pm 19.6 17.2 13.8 69 3.3 E 19 26 10 14 1015.1 1015.1 0.0
22/06:30pm 20.4 18.3 13.6 65 3.9 E 17 26 9 14 1014.9 1014.9 0.0
22/06:00pm 21.1 18.9 13.3 61 4.5 E 17 28 9 15 1014.8 1014.8 0.0
22/05:30pm 21.5 18.7 13.2 59 4.8 E 20 30 11 16 1014.9 1014.9 0.0
22/05:00pm 22.4 20.1 12.9 55 5.4 E 17 26 9 14 1015.0 1015.0 0.0
22/04:30pm 22.6 19.1 12.3 52 5.8 E 22 32 12 17 1015.1 1015.1 0.0
22/04:00pm 23.0 19.8 12.0 50 6.2 ESE 20 30 11 16 1015.2 1015.2 0.0
22/03:30pm 22.8 19.7 12.1 51 6.1 ESE 20 30 11 16 1015.5 1015.5 0.0
22/03:00pm 22.7 19.7 12.6 53 5.8 ESE 20 39 11 21 1015.9 1015.9 0.0
22/02:30pm 23.5 21.1 13.9 55 5.6 E 19 28 10 15 1016.1 1016.1 0.0
22/02:00pm 22.7 20.1 13.7 56 5.2 ESE 20 30 11 16 1016.4 1016.4 0.0
22/01:30pm 22.9 20.3 13.7 56 5.4 ESE 20 28 11 15 1016.4 1016.4 0.0
22/01:00pm 22.4 20.3 14.8 62 4.5 SE 19 24 10 13 1016.8 1016.8 0.0
22/12:30pm 22.6 20.5 13.7 57 5.2 ESE 17 24 9 13 1017.0 1017.0 0.0
22/12:00pm 22.7 20.2 13.5 56 5.3 SE 19 26 10 14 1017.1 1017.1 0.0
22/11:30am 23.1 21.6 13.0 53 5.8 SE 13 20 7 11 1017.2 1017.2 0.0
22/11:00am 22.6 21.4 12.8 54 5.6 ESE 11 20 6 11 1017.5 1017.5 0.0
22/10:30am 21.9 20.5 12.2 54 5.5 ESE 11 17 6 9 1017.8 1017.8 0.0
22/10:00am 20.6 20.2 13.1 62 4.3 ESE 7 17 4 9 1018.0 1018.0 0.0
22/09:30am 19.7 19.3 12.9 65 3.8 ESE 7 15 4 8 1018.4 1018.4 0.0
22/09:00am 18.6 18.7 13.9 74 2.7 SE 6 15 3 8 1018.7 1018.7 0.0
22/08:30am 16.7 18.2 14.7 88 1.2 CALM 0 6 0 3 1018.7 1018.7 0.0
22/08:00am 14.9 16.4 14.6 98 0.2 CALM 0 6 0 3 1018.6 1018.6 0.0
22/07:30am 12.3 11.2 12.1 99 0.1 W 9 11 5 6 1018.7 1018.7 0.0
22/07:00am 10.6 10.8 10.6 100 0.0 CALM 0 4 0 2 1018.6 1018.6 0.0
22/06:30am 8.1 7.7 8.1 100 0.0 CALM 0 0 0 0 1018.6 1018.6 0.0
22/06:00am 5.8 4.8 5.5 98 0.1 CALM 0 0 0 0 1018.4 1018.4 0.0
22/05:30am 6.5 5.6 6.2 98 0.1 CALM 0 0 0 0 1018.4 1018.4 0.0
22/05:00am 7.4 6.7 7.1 98 0.1 CALM 0 0 0 0 1018.4 1018.4 0.0
22/04:30am 7.3 6.6 7.0 98 0.1 CALM 0 0 0 0 1018.3 1018.3 0.0
22/04:00am 7.8 7.2 7.5 98 0.1 CALM 0 0 0 0 1018.3 1018.3 0.0
22/03:30am 8.1 7.6 7.8 98 0.1 CALM 0 0 0 0 1018.5 1018.5 0.0
22/03:00am 7.8 6.1 7.5 98 0.1 W 6 9 3 5 1018.6 1018.6 0.0
22/02:30am 7.4 6.3 7.1 98 0.1 NW 2 6 1 3 1018.7 1018.7 0.0
22/02:00am 7.6 7.0 7.2 97 0.2 CALM 0 0 0 0 1018.8 1018.8 0.0
22/01:30am 8.0 5.7 7.4 96 0.3 NNE 9 9 5 5 1019.0 1019.0 0.0
22/01:00am 8.4 6.7 7.6 95 0.4 ENE 6 6 3 3 1019.3 1019.3 0.0
22/12:30am 8.9 7.1 8.1 95 0.4 NE 7 7 4 4 1019.5 1019.5 0.0
22/12:00am 10.0 8.7 9.2 95 0.4 E 6 7 3 4 1019.7 1019.7 0.0
 
Date/Time
EDT
Temp
°C
App
Temp
°C
Dew
Point
°C
Rel
Hum
%
Delta-T
°C
Wind Press
QNH
hPa
Press
MSL
hPa
Rain since
9am
mm
Dir  Spd
km/h
Gust
km/h
Spd
kts
Gust
kts
21/11:30pm 9.9 9.6 8.8 93 0.5 CALM 0 0 0 0 1020.0 1020.0 0.0
21/11:00pm 12.4 12.8 11.3 93 0.6 CALM 0 2 0 1 1020.2 1020.2 0.0
21/10:30pm 12.0 12.2 10.4 90 0.8 CALM 0 0 0 0 1020.4 1020.4 0.0
21/10:00pm 14.7 14.5 13.1 90 0.9 NE 6 7 3 4 1020.2 1020.2 0.0
21/09:30pm 15.2 14.9 13.2 88 1.1 ENE 7 9 4 5 1020.0 1020.0 0.0
21/09:00pm 16.0 14.7 13.8 87 1.2 ENE 13 19 7 10 1019.8 1019.8 0.0
21/08:30pm 16.8 14.9 14.3 85 1.4 E 17 24 9 13 1019.8 1019.8 0.0
21/08:00pm 17.8 15.6 14.3 80 2.0 E 19 26 10 14 1019.8 1019.8 0.0
21/07:30pm 19.2 16.7 14.0 72 3.0 E 20 30 11 16 1019.5 1019.5 0.0
21/07:00pm 21.0 18.7 14.2 65 3.9 E 19 26 10 14 1019.4 1019.4 0.0
21/06:30pm 22.5 20.3 13.3 56 5.3 E 17 26 9 14 1019.2 1019.2 0.0
21/06:00pm 24.5 22.1 12.8 48 6.7 E 17 26 9 14 1018.8 1018.8 0.0
21/05:30pm 25.7 22.9 11.5 41 8.1 E 17 22 9 12 1018.9 1018.9 0.0
21/05:00pm 25.9 23.7 12.0 42 8.0 E 15 20 8 11 1019.1 1019.1 0.0
21/04:30pm 26.6 24.5 12.3 41 8.3 ESE 15 24 8 13 1019.2 1019.2 0.0
21/04:00pm 27.0 24.2 12.6 41 8.4 ESE 19 26 10 14 1019.2 1019.2 0.0
21/03:30pm 27.2 24.5 12.8 41 8.4 SE 19 28 10 15 1019.4 1019.4 0.0
21/03:00pm 27.4 24.6 12.6 40 8.6 SE 19 28 10 15 1019.8 1019.8 0.0
21/02:30pm 27.3 25.1 13.3 42 8.3 SE 17 26 9 14 1020.0 1020.0 0.0
21/02:00pm 27.8 27.0 14.1 43 8.2 SSE 11 20 6 11 1020.2 1020.2 0.0
21/01:30pm 27.2 26.1 14.2 44 7.8 SE 13 22 7 12 1020.5 1020.5 0.0
21/01:00pm 26.9 26.6 14.3 46 7.5 SSE 9 22 5 12 1020.8 1020.8 0.0
21/12:30pm 26.3 25.5 15.0 49 6.8 ESE 13 24 7 13 1021.0 1021.0 0.0
21/12:00pm 25.3 24.9 15.3 54 6.0 SSE 11 20 6 11 1021.2 1021.2 0.0
21/11:30am 25.2 24.6 16.6 59 5.3 SSE 15 22 8 12 1021.3 1021.3 0.0
21/11:00am 24.3 24.5 15.8 59 5.1 SSE 9 17 5 9 1021.3 1021.3 0.0
21/10:30am 24.3 24.9 15.2 57 5.5 S 6 11 3 6 1021.4 1021.4 0.0
21/10:00am 23.0 24.1 15.6 63 4.4 SSW 4 13 2 7 1021.5 1021.5 0.0
21/09:30am 22.0 23.3 15.1 65 4.1 SW 2 9 1 5 1021.4 1021.4 0.0
21/09:00am 20.4 21.9 15.6 74 2.8 W 2 7 1 4 1021.5 1021.5 0.0
21/08:30am 17.9 19.0 15.5 86 1.4 WSW 4 9 2 5 1021.7 1021.7 0.0
21/08:00am 16.6 18.6 16.1 97 0.3 CALM 0 7 0 4 1021.5 1021.5 0.0
21/07:30am 14.6 16.0 14.4 99 0.1 CALM 0 9 0 5 1021.2 1021.2 0.0
21/07:00am 12.5 12.9 12.5 100 0.0 WNW 2 7 1 4 1020.9 1020.9 0.0
21/06:30am 10.7 10.9 10.5 99 0.1 CALM 0 0 0 0 1020.7 1020.7 0.0
21/06:00am 9.9 9.8 9.6 98 0.1 CALM 0 0 0 0 1020.6 1020.6 0.0
21/05:30am 10.2 10.3 10.1 99 0.1 CALM 0 0 0 0 1020.4 1020.4 0.0
21/05:00am 10.5 10.6 10.2 98 0.2 CALM 0 0 0 0 1020.3 1020.3 0.0
21/04:30am 11.3 11.7 11.1 99 0.1 CALM 0 0 0 0 1020.3 1020.3 0.0
21/04:00am 10.2 9.5 9.9 98 0.2 NW 4 6 2 3 1020.5 1020.5 0.0
21/03:30am 9.2 7.6 8.9 98 0.1 NW 7 9 4 5 1020.6 1020.6 0.0
21/03:00am 9.2 9.0 8.9 98 0.1 CALM 0 0 0 0 1020.8 1020.8 0.0
21/02:30am 9.8 9.7 9.3 97 0.2 CALM 0 0 0 0 1021.1 1021.1 0.0
21/02:00am 10.5 10.6 10.0 97 0.3 CALM 0 0 0 0 1021.3 1021.3 0.0
21/01:30am 11.6 12.0 11.1 97 0.3 CALM 0 0 0 0 1021.5 1021.5 0.0
21/01:00am 11.3 11.6 10.8 97 0.3 CALM 0 0 0 0 1021.7 1021.7 0.0
21/12:30am 11.6 11.2 11.1 97 0.3 WNW 4 7 2 4 1022.1 1022.1 0.0
21/12:00am 11.2 10.3 10.6 96 0.3 NW 6 7 3 4 1022.2 1022.2 0.0
 
Date/Time
EDT
Temp
°C
App
Temp
°C
Dew
Point
°C
Rel
Hum
%
Delta-T
°C
Wind Press
QNH
hPa
Press
MSL
hPa
Rain since
9am
mm
Dir  Spd
km/h
Gust
km/h
Spd
kts
Gust
kts
20/11:30pm 11.7 10.9 10.9 95 0.4 NW 6 7 3 4 1022.4 1022.4 0.0
20/11:00pm 12.5 11.9 11.6 94 0.5 NNE 6 6 3 3 1022.5 1022.5 0.0
20/10:30pm 13.0 12.8 11.7 92 0.7 ENE 4 6 2 3 1022.8 1022.8 0.0
20/10:00pm 15.1 14.2 13.8 92 0.7 ESE 11 13 6 7 1023.0 1023.0 0.0
20/09:30pm 15.3 14.8 13.7 90 0.9 E 9 13 5 7 1022.8 1022.8 0.0
20/09:00pm 16.0 15.5 13.8 87 1.2 E 9 11 5 6 1022.6 1022.6 0.0
20/08:30pm 16.7 15.9 14.0 84 1.5 E 11 15 6 8 1022.5 1022.5 0.0
20/08:00pm 17.9 16.7 14.0 78 2.2 E 13 17 7 9 1022.2 1022.2 0.0
20/07:30pm 19.0 17.4 13.8 72 3.0 E 15 19 8 10 1021.8 1021.8 0.0
20/07:00pm 20.2 18.2 13.9 67 3.6 E 17 26 9 14 1021.5 1021.5 0.0
20/06:30pm 21.4 18.7 13.6 61 4.5 E 20 28 11 15 1021.3 1021.3 0.0
20/06:00pm 22.4 19.8 13.7 58 5.0 E 20 26 11 14 1021.3 1021.3 0.0
20/05:30pm 23.0 20.6 13.8 56 5.4 E 19 26 10 14 1021.5 1021.5 0.0
20/05:00pm 23.4 20.8 13.8 54 5.6 E 20 32 11 17 1021.5 1021.5 0.0
20/04:30pm 23.7 20.9 13.3 52 6.0 E 20 28 11 15 1021.5 1021.5 0.0
20/04:00pm 24.6 21.5 12.2 46 7.1 E 20 28 11 15 1021.6 1021.6 0.0
20/03:30pm 24.8 21.8 12.4 46 7.1 E 20 30 11 16 1021.9 1021.9 0.0
20/03:00pm 25.0 22.3 12.9 47 7.0 E 19 28 10 15 1022.0 1022.0 0.0
20/02:30pm 25.2 22.8 13.7 49 6.8 ESE 19 24 10 13 1022.3 1022.3 0.0
20/02:00pm 25.8 23.7 15.2 52 6.4 SE 20 26 11 14 1022.5 1022.5 0.0
20/01:30pm 24.9 23.9 15.5 56 5.7 SE 15 22 8 12 1022.8 1022.8 0.0
20/01:00pm 26.0 25.3 16.5 55 5.8 SE 15 22 8 12 1022.9 1022.9 0.0
20/12:30pm 25.3 25.1 16.7 59 5.3 SSE 13 20 7 11 1022.9 1022.9 0.0
20/12:00pm 24.6 23.2 16.6 61 4.9 SSE 19 24 10 13 1023.1 1023.1 0.0
20/11:30am 24.4 22.9 16.4 61 4.9 S 19 26 10 14 1023.2 1023.2 0.0
20/11:00am 25.4 26.8 16.3 57 5.6 SW 4 11 2 6 1023.1 1023.1 0.0
20/10:30am 24.0 25.8 16.5 63 4.6 WSW 2 7 1 4 1023.4 1023.4 0.0
20/10:00am 21.4 23.4 16.1 72 3.2 CALM 0 0 0 0 1023.6 1023.6 0.0
20/09:30am 19.3 20.7 17.4 89 1.2 WSW 6 11 3 6 1023.8 1023.8 0.0
20/09:00am 17.7 18.6 17.5 99 0.1 W 9 13 5 7 1023.9 1023.9 0.0
20/08:30am 16.7 17.8 16.7 100 0.0 W 6 9 3 5 1023.8 1023.8 0.0
20/08:00am 15.9 16.5 15.9 100 0.0 W 7 11 4 6 1023.4 1023.4 0.0
20/07:30am 15.7 15.9 15.7 100 0.0 W 9 11 5 6 1023.1 1023.1 0.0
20/07:00am 15.1 16.8 15.1 100 0.0 CALM 0 0 0 0 1022.8 1022.8 0.0
20/06:30am 14.7 16.2 14.7 100 0.0 CALM 0 0 0 0 1022.4 1022.4 0.0
20/06:00am 14.2 14.2 14.2 100 0.0 WNW 7 9 4 5 1022.2 1022.2 0.0
20/05:30am 13.6 13.0 13.4 99 0.1 WNW 9 11 5 6 1022.0 1022.0 0.0
20/05:00am 12.8 12.3 12.6 99 0.1 WNW 7 11 4 6 1021.7 1021.7 0.0
20/04:30am 12.2 11.5 12.0 99 0.1 WNW 7 9 4 5 1021.6 1021.6 0.0
20/04:00am 12.0 11.2 11.7 98 0.2 WNW 7 11 4 6 1021.6 1021.6 0.0
20/03:30am 10.5 10.6 10.2 98 0.2 CALM 0 0 0 0 1021.4 1021.4 0.0
20/03:00am 10.2 10.2 9.7 97 0.2 CALM 0 0 0 0 1021.4 1021.4 0.0
20/02:30am 10.1 10.0 9.6 97 0.3 CALM 0 0 0 0 1021.2 1021.2 0.0
20/02:00am 10.6 10.7 10.1 97 0.3 CALM 0 0 0 0 1021.3 1021.3 0.0
20/01:30am 10.8 10.9 10.2 96 0.3 CALM 0 0 0 0 1021.5 1021.5 0.0
20/01:00am 12.1 12.6 11.5 96 0.3 CALM 0 0 0 0 1021.5 1021.5 0.0
20/12:30am 12.1 11.4 11.5 96 0.3 NE 6 9 3 5 1021.6 1021.6 0.0
20/12:00am 12.9 13.6 12.1 95 0.4 CALM 0 0 0 0 1021.9 1021.9 0.0

Other Formats:

Comma delimited format used in spreadsheet applications
http://www.bom.gov.au/fwo/IDV60801/IDV60801.95890.axf

JavaScript Object Notation format (JSON) in row-major order
http://www.bom.gov.au/fwo/IDV60801/IDV60801.95890.json